sensor_id;sensor_type;location;lat;lon;timestamp;P1;durP1;ratioP1;P2;durP2;ratioP2
50012;SDS011;35901;48.694;9.476;2022-07-17T00:01:05;7.40;;;6.33;;
50012;SDS011;35901;48.694;9.476;2022-07-17T00:03:31;16.67;;;14.03;;
50012;SDS011;35901;48.694;9.476;2022-07-17T00:05:56;9.07;;;8.17;;
50012;SDS011;35901;48.694;9.476;2022-07-17T00:08:22;7.60;;;6.83;;
50012;SDS011;35901;48.694;9.476;2022-07-17T00:10:49;6.83;;;6.23;;
50012;SDS011;35901;48.694;9.476;2022-07-17T00:13:16;9.50;;;7.60;;
50012;SDS011;35901;48.694;9.476;2022-07-17T00:15:42;7.03;;;6.33;;
50012;SDS011;35901;48.694;9.476;2022-07-17T00:18:08;6.50;;;5.80;;
50012;SDS011;35901;48.694;9.476;2022-07-17T00:20:34;6.10;;;5.50;;
50012;SDS011;35901;48.694;9.476;2022-07-17T00:23:01;5.50;;;5.00;;
50012;SDS011;35901;48.694;9.476;2022-07-17T00:25:27;7.00;;;6.40;;
50012;SDS011;35901;48.694;9.476;2022-07-17T00:27:53;8.10;;;7.30;;
50012;SDS011;35901;48.694;9.476;2022-07-17T00:30:19;9.43;;;7.90;;
50012;SDS011;35901;48.694;9.476;2022-07-17T00:32:46;7.03;;;6.33;;
50012;SDS011;35901;48.694;9.476;2022-07-17T00:35:29;8.10;;;7.30;;
50012;SDS011;35901;48.694;9.476;2022-07-17T00:37:56;9.37;;;8.37;;
50012;SDS011;35901;48.694;9.476;2022-07-17T00:40:22;9.20;;;8.30;;
50012;SDS011;35901;48.694;9.476;2022-07-17T00:42:49;9.80;;;8.37;;
50012;SDS011;35901;48.694;9.476;2022-07-17T00:45:15;8.33;;;7.20;;
50012;SDS011;35901;48.694;9.476;2022-07-17T00:50:24;9.50;;;7.70;;
50012;SDS011;35901;48.694;9.476;2022-07-17T00:52:55;8.80;;;6.70;;
50012;SDS011;35901;48.694;9.476;2022-07-17T00:55:21;8.23;;;6.00;;
50012;SDS011;35901;48.694;9.476;2022-07-17T00:57:48;6.20;;;5.70;;
50012;SDS011;35901;48.694;9.476;2022-07-17T01:00:15;6.30;;;5.70;;
50012;SDS011;35901;48.694;9.476;2022-07-17T01:05:16;8.90;;;6.50;;
50012;SDS011;35901;48.694;9.476;2022-07-17T01:07:44;6.23;;;5.63;;
50012;SDS011;35901;48.694;9.476;2022-07-17T01:10:10;8.30;;;5.60;;
50012;SDS011;35901;48.694;9.476;2022-07-17T01:12:37;6.23;;;5.63;;
50012;SDS011;35901;48.694;9.476;2022-07-17T01:15:06;7.87;;;6.63;;
50012;SDS011;35901;48.694;9.476;2022-07-17T01:17:33;6.73;;;6.13;;
50012;SDS011;35901;48.694;9.476;2022-07-17T01:20:01;7.27;;;6.67;;
50012;SDS011;35901;48.694;9.476;2022-07-17T01:22:31;6.77;;;6.17;;
50012;SDS011;35901;48.694;9.476;2022-07-17T01:25:00;6.97;;;5.73;;
50012;SDS011;35901;48.694;9.476;2022-07-17T01:27:43;6.60;;;6.00;;
50012;SDS011;35901;48.694;9.476;2022-07-17T01:30:12;6.90;;;6.20;;
50012;SDS011;35901;48.694;9.476;2022-07-17T01:32:40;7.00;;;6.30;;
50012;SDS011;35901;48.694;9.476;2022-07-17T01:35:07;6.90;;;6.20;;
50012;SDS011;35901;48.694;9.476;2022-07-17T01:37:38;9.27;;;6.97;;
50012;SDS011;35901;48.694;9.476;2022-07-17T01:40:05;7.07;;;6.10;;
50012;SDS011;35901;48.694;9.476;2022-07-17T01:42:32;7.23;;;6.53;;
50012;SDS011;35901;48.694;9.476;2022-07-17T01:44:58;9.90;;;8.80;;
50012;SDS011;35901;48.694;9.476;2022-07-17T01:47:27;7.00;;;6.30;;
50012;SDS011;35901;48.694;9.476;2022-07-17T01:50:24;6.40;;;5.83;;
50012;SDS011;35901;48.694;9.476;2022-07-17T01:53:01;6.60;;;6.10;;
50012;SDS011;35901;48.694;9.476;2022-07-17T01:55:28;7.10;;;6.40;;
50012;SDS011;35901;48.694;9.476;2022-07-17T01:58:04;6.97;;;6.40;;
50012;SDS011;35901;48.694;9.476;2022-07-17T02:03:40;6.17;;;5.50;;
50012;SDS011;35901;48.694;9.476;2022-07-17T02:06:33;6.50;;;5.90;;
50012;SDS011;35901;48.694;9.476;2022-07-17T02:09:13;5.50;;;5.10;;
50012;SDS011;35901;48.694;9.476;2022-07-17T02:11:45;6.57;;;5.90;;
50012;SDS011;35901;48.694;9.476;2022-07-17T02:14:11;6.40;;;5.47;;
50012;SDS011;35901;48.694;9.476;2022-07-17T02:16:37;6.57;;;6.07;;
50012;SDS011;35901;48.694;9.476;2022-07-17T02:19:03;7.10;;;6.50;;
50012;SDS011;35901;48.694;9.476;2022-07-17T02:21:28;6.70;;;6.10;;
50012;SDS011;35901;48.694;9.476;2022-07-17T02:23:54;7.53;;;6.93;;
50012;SDS011;35901;48.694;9.476;2022-07-17T02:26:30;9.23;;;7.90;;
50012;SDS011;35901;48.694;9.476;2022-07-17T02:28:56;9.90;;;8.43;;
50012;SDS011;35901;48.694;9.476;2022-07-17T02:31:23;7.53;;;6.93;;
50012;SDS011;35901;48.694;9.476;2022-07-17T02:33:53;8.80;;;8.00;;
50012;SDS011;35901;48.694;9.476;2022-07-17T02:36:20;8.90;;;8.10;;
50012;SDS011;35901;48.694;9.476;2022-07-17T02:38:47;8.93;;;8.17;;
50012;SDS011;35901;48.694;9.476;2022-07-17T02:41:15;9.77;;;8.40;;
50012;SDS011;35901;48.694;9.476;2022-07-17T02:43:41;8.53;;;7.50;;
50012;SDS011;35901;48.694;9.476;2022-07-17T02:46:07;8.60;;;7.80;;
50012;SDS011;35901;48.694;9.476;2022-07-17T02:48:33;8.20;;;7.50;;
50012;SDS011;35901;48.694;9.476;2022-07-17T02:50:59;8.20;;;7.50;;
50012;SDS011;35901;48.694;9.476;2022-07-17T02:53:25;7.63;;;6.93;;
50012;SDS011;35901;48.694;9.476;2022-07-17T02:55:51;8.27;;;7.57;;
50012;SDS011;35901;48.694;9.476;2022-07-17T02:58:17;7.17;;;6.57;;
50012;SDS011;35901;48.694;9.476;2022-07-17T03:00:43;6.40;;;5.77;;
50012;SDS011;35901;48.694;9.476;2022-07-17T03:03:09;7.57;;;6.87;;
50012;SDS011;35901;48.694;9.476;2022-07-17T03:05:34;8.13;;;7.33;;
50012;SDS011;35901;48.694;9.476;2022-07-17T03:08:00;7.87;;;7.10;;
50012;SDS011;35901;48.694;9.476;2022-07-17T03:10:26;9.23;;;8.43;;
50012;SDS011;35901;48.694;9.476;2022-07-17T03:12:52;10.23;;;9.33;;
50012;SDS011;35901;48.694;9.476;2022-07-17T03:15:23;10.67;;;9.23;;
50012;SDS011;35901;48.694;9.476;2022-07-17T03:17:49;10.30;;;9.30;;
50012;SDS011;35901;48.694;9.476;2022-07-17T03:20:15;9.60;;;8.60;;
50012;SDS011;35901;48.694;9.476;2022-07-17T03:22:40;8.83;;;8.03;;
50012;SDS011;35901;48.694;9.476;2022-07-17T03:25:06;9.03;;;8.23;;
50012;SDS011;35901;48.694;9.476;2022-07-17T03:27:32;7.50;;;6.80;;
50012;SDS011;35901;48.694;9.476;2022-07-17T03:29:59;8.87;;;8.03;;
50012;SDS011;35901;48.694;9.476;2022-07-17T03:32:25;8.90;;;8.10;;
50012;SDS011;35901;48.694;9.476;2022-07-17T03:34:53;9.37;;;8.47;;
50012;SDS011;35901;48.694;9.476;2022-07-17T03:37:18;10.60;;;9.67;;
50012;SDS011;35901;48.694;9.476;2022-07-17T03:39:44;11.73;;;10.63;;
50012;SDS011;35901;48.694;9.476;2022-07-17T03:42:10;9.63;;;8.83;;
50012;SDS011;35901;48.694;9.476;2022-07-17T03:44:35;11.03;;;10.03;;
50012;SDS011;35901;48.694;9.476;2022-07-17T03:47:01;9.03;;;8.23;;
50012;SDS011;35901;48.694;9.476;2022-07-17T03:49:27;9.57;;;8.60;;
50012;SDS011;35901;48.694;9.476;2022-07-17T03:51:52;9.47;;;8.57;;
50012;SDS011;35901;48.694;9.476;2022-07-17T03:54:18;9.43;;;8.60;;
50012;SDS011;35901;48.694;9.476;2022-07-17T03:56:44;9.47;;;8.63;;
50012;SDS011;35901;48.694;9.476;2022-07-17T03:59:09;10.53;;;9.53;;
50012;SDS011;35901;48.694;9.476;2022-07-17T04:01:35;10.20;;;9.37;;
50012;SDS011;35901;48.694;9.476;2022-07-17T04:04:01;9.10;;;8.40;;
50012;SDS011;35901;48.694;9.476;2022-07-17T04:06:27;10.87;;;9.37;;
50012;SDS011;35901;48.694;9.476;2022-07-17T04:08:53;10.93;;;9.93;;
50012;SDS011;35901;48.694;9.476;2022-07-17T04:11:18;10.97;;;10.00;;
50012;SDS011;35901;48.694;9.476;2022-07-17T04:13:45;9.37;;;8.57;;
50012;SDS011;35901;48.694;9.476;2022-07-17T04:16:11;11.37;;;10.30;;
50012;SDS011;35901;48.694;9.476;2022-07-17T04:18:37;9.70;;;8.90;;
50012;SDS011;35901;48.694;9.476;2022-07-17T04:21:04;9.60;;;8.70;;
50012;SDS011;35901;48.694;9.476;2022-07-17T04:23:31;10.83;;;9.70;;
50012;SDS011;35901;48.694;9.476;2022-07-17T04:25:57;10.40;;;9.50;;
50012;SDS011;35901;48.694;9.476;2022-07-17T04:28:23;10.13;;;9.17;;
50012;SDS011;35901;48.694;9.476;2022-07-17T04:30:49;9.20;;;8.40;;
50012;SDS011;35901;48.694;9.476;2022-07-17T04:33:15;9.13;;;8.33;;
50012;SDS011;35901;48.694;9.476;2022-07-17T04:35:41;8.63;;;7.93;;
50012;SDS011;35901;48.694;9.476;2022-07-17T04:38:12;8.47;;;7.77;;
50012;SDS011;35901;48.694;9.476;2022-07-17T04:40:38;7.67;;;7.00;;
50012;SDS011;35901;48.694;9.476;2022-07-17T04:43:04;7.33;;;6.73;;
50012;SDS011;35901;48.694;9.476;2022-07-17T04:45:30;7.03;;;6.43;;
50012;SDS011;35901;48.694;9.476;2022-07-17T04:47:57;6.10;;;5.50;;
50012;SDS011;35901;48.694;9.476;2022-07-17T04:50:23;7.17;;;5.50;;
50012;SDS011;35901;48.694;9.476;2022-07-17T04:52:48;5.47;;;4.97;;
50012;SDS011;35901;48.694;9.476;2022-07-17T04:55:14;5.20;;;4.70;;
50012;SDS011;35901;48.694;9.476;2022-07-17T04:57:41;4.77;;;4.37;;
50012;SDS011;35901;48.694;9.476;2022-07-17T05:00:08;4.47;;;3.77;;
50012;SDS011;35901;48.694;9.476;2022-07-17T05:02:35;4.67;;;4.27;;
50012;SDS011;35901;48.694;9.476;2022-07-17T05:05:01;4.70;;;4.30;;
50012;SDS011;35901;48.694;9.476;2022-07-17T05:07:29;4.60;;;4.20;;
50012;SDS011;35901;48.694;9.476;2022-07-17T05:09:55;4.13;;;3.77;;
50012;SDS011;35901;48.694;9.476;2022-07-17T05:12:20;3.90;;;3.60;;
50012;SDS011;35901;48.694;9.476;2022-07-17T05:14:46;4.10;;;3.80;;
50012;SDS011;35901;48.694;9.476;2022-07-17T05:17:13;4.27;;;3.87;;
50012;SDS011;35901;48.694;9.476;2022-07-17T05:19:38;4.50;;;4.10;;
50012;SDS011;35901;48.694;9.476;2022-07-17T05:22:04;4.37;;;3.97;;
50012;SDS011;35901;48.694;9.476;2022-07-17T05:24:30;4.50;;;4.10;;
50012;SDS011;35901;48.694;9.476;2022-07-17T05:26:57;4.03;;;3.67;;
50012;SDS011;35901;48.694;9.476;2022-07-17T05:29:22;4.07;;;3.77;;
50012;SDS011;35901;48.694;9.476;2022-07-17T05:31:48;3.47;;;3.17;;
50012;SDS011;35901;48.694;9.476;2022-07-17T05:34:14;4.50;;;4.10;;
50012;SDS011;35901;48.694;9.476;2022-07-17T05:36:40;4.10;;;3.73;;
50012;SDS011;35901;48.694;9.476;2022-07-17T05:39:06;3.70;;;3.40;;
50012;SDS011;35901;48.694;9.476;2022-07-17T05:41:33;3.50;;;3.20;;
50012;SDS011;35901;48.694;9.476;2022-07-17T05:43:59;4.10;;;3.80;;
50012;SDS011;35901;48.694;9.476;2022-07-17T05:46:25;3.43;;;3.23;;
50012;SDS011;35901;48.694;9.476;2022-07-17T05:48:50;4.33;;;3.60;;
50012;SDS011;35901;48.694;9.476;2022-07-17T05:51:16;3.70;;;3.50;;
50012;SDS011;35901;48.694;9.476;2022-07-17T05:53:42;3.57;;;3.27;;
50012;SDS011;35901;48.694;9.476;2022-07-17T05:56:07;4.07;;;3.67;;
50012;SDS011;35901;48.694;9.476;2022-07-17T05:58:33;3.57;;;3.37;;
50012;SDS011;35901;48.694;9.476;2022-07-17T06:00:59;3.57;;;3.23;;
50012;SDS011;35901;48.694;9.476;2022-07-17T06:03:24;3.80;;;3.50;;
50012;SDS011;35901;48.694;9.476;2022-07-17T06:05:50;4.67;;;3.17;;
50012;SDS011;35901;48.694;9.476;2022-07-17T06:08:16;4.10;;;3.70;;
50012;SDS011;35901;48.694;9.476;2022-07-17T06:10:43;4.00;;;3.70;;
50012;SDS011;35901;48.694;9.476;2022-07-17T06:13:09;3.60;;;3.40;;
50012;SDS011;35901;48.694;9.476;2022-07-17T06:15:34;3.83;;;3.00;;
50012;SDS011;35901;48.694;9.476;2022-07-17T06:18:01;3.30;;;3.00;;
50012;SDS011;35901;48.694;9.476;2022-07-17T06:20:28;5.00;;;3.27;;
50012;SDS011;35901;48.694;9.476;2022-07-17T06:22:54;3.40;;;3.07;;
50012;SDS011;35901;48.694;9.476;2022-07-17T06:25:19;3.73;;;3.30;;
50012;SDS011;35901;48.694;9.476;2022-07-17T06:27:45;3.30;;;3.10;;
50012;SDS011;35901;48.694;9.476;2022-07-17T06:30:12;3.23;;;3.00;;
50012;SDS011;35901;48.694;9.476;2022-07-17T06:32:38;3.60;;;3.30;;
50012;SDS011;35901;48.694;9.476;2022-07-17T06:35:04;3.77;;;3.30;;
50012;SDS011;35901;48.694;9.476;2022-07-17T06:37:31;3.27;;;2.97;;
50012;SDS011;35901;48.694;9.476;2022-07-17T06:42:34;3.27;;;2.97;;
50012;SDS011;35901;48.694;9.476;2022-07-17T06:44:59;4.00;;;3.40;;
50012;SDS011;35901;48.694;9.476;2022-07-17T06:47:25;2.83;;;2.63;;
50012;SDS011;35901;48.694;9.476;2022-07-17T06:49:51;4.37;;;2.83;;
50012;SDS011;35901;48.694;9.476;2022-07-17T06:52:16;3.37;;;2.87;;
50012;SDS011;35901;48.694;9.476;2022-07-17T06:54:42;2.87;;;2.67;;
50012;SDS011;35901;48.694;9.476;2022-07-17T06:57:08;3.03;;;2.80;;
50012;SDS011;35901;48.694;9.476;2022-07-17T06:59:33;3.90;;;2.90;;
50012;SDS011;35901;48.694;9.476;2022-07-17T07:01:59;2.93;;;2.73;;
50012;SDS011;35901;48.694;9.476;2022-07-17T07:04:25;2.93;;;2.73;;
50012;SDS011;35901;48.694;9.476;2022-07-17T07:06:50;2.90;;;2.70;;
50012;SDS011;35901;48.694;9.476;2022-07-17T07:09:16;2.70;;;2.47;;
50012;SDS011;35901;48.694;9.476;2022-07-17T07:11:48;2.97;;;2.67;;
50012;SDS011;35901;48.694;9.476;2022-07-17T07:14:13;2.90;;;2.60;;
50012;SDS011;35901;48.694;9.476;2022-07-17T07:16:39;3.00;;;2.80;;
50012;SDS011;35901;48.694;9.476;2022-07-17T07:19:05;2.93;;;2.73;;
50012;SDS011;35901;48.694;9.476;2022-07-17T07:21:30;3.93;;;3.10;;
50012;SDS011;35901;48.694;9.476;2022-07-17T07:23:56;3.83;;;2.70;;
50012;SDS011;35901;48.694;9.476;2022-07-17T07:26:22;2.87;;;2.70;;
50012;SDS011;35901;48.694;9.476;2022-07-17T07:28:48;3.17;;;2.67;;
50012;SDS011;35901;48.694;9.476;2022-07-17T07:31:14;2.40;;;2.30;;
50012;SDS011;35901;48.694;9.476;2022-07-17T07:33:42;2.90;;;2.70;;
50012;SDS011;35901;48.694;9.476;2022-07-17T07:36:08;2.27;;;2.17;;
50012;SDS011;35901;48.694;9.476;2022-07-17T07:38:33;3.20;;;2.30;;
50012;SDS011;35901;48.694;9.476;2022-07-17T07:40:59;2.47;;;2.23;;
50012;SDS011;35901;48.694;9.476;2022-07-17T07:43:27;2.30;;;2.20;;
50012;SDS011;35901;48.694;9.476;2022-07-17T07:45:53;2.20;;;2.10;;
50012;SDS011;35901;48.694;9.476;2022-07-17T07:48:18;2.03;;;1.83;;
50012;SDS011;35901;48.694;9.476;2022-07-17T07:50:44;2.03;;;1.93;;
50012;SDS011;35901;48.694;9.476;2022-07-17T07:53:09;2.47;;;2.13;;
50012;SDS011;35901;48.694;9.476;2022-07-17T07:55:35;2.00;;;1.90;;
50012;SDS011;35901;48.694;9.476;2022-07-17T07:58:04;4.50;;;2.20;;
50012;SDS011;35901;48.694;9.476;2022-07-17T08:00:32;4.00;;;2.40;;
50012;SDS011;35901;48.694;9.476;2022-07-17T08:02:58;2.77;;;2.00;;
50012;SDS011;35901;48.694;9.476;2022-07-17T08:05:24;2.93;;;2.40;;
50012;SDS011;35901;48.694;9.476;2022-07-17T08:07:50;2.33;;;2.00;;
50012;SDS011;35901;48.694;9.476;2022-07-17T08:10:16;2.90;;;2.30;;
50012;SDS011;35901;48.694;9.476;2022-07-17T08:12:44;2.20;;;2.00;;
50012;SDS011;35901;48.694;9.476;2022-07-17T08:15:10;2.00;;;1.90;;
50012;SDS011;35901;48.694;9.476;2022-07-17T08:17:36;2.43;;;1.97;;
50012;SDS011;35901;48.694;9.476;2022-07-17T08:20:02;2.53;;;2.03;;
50012;SDS011;35901;48.694;9.476;2022-07-17T08:22:28;2.30;;;2.10;;
50012;SDS011;35901;48.694;9.476;2022-07-17T08:24:54;2.40;;;2.20;;
50012;SDS011;35901;48.694;9.476;2022-07-17T08:27:19;3.37;;;2.00;;
50012;SDS011;35901;48.694;9.476;2022-07-17T08:29:46;2.77;;;2.30;;
50012;SDS011;35901;48.694;9.476;2022-07-17T08:32:12;2.37;;;2.17;;
50012;SDS011;35901;48.694;9.476;2022-07-17T08:34:37;3.90;;;2.20;;
50012;SDS011;35901;48.694;9.476;2022-07-17T08:37:03;1.90;;;1.80;;
50012;SDS011;35901;48.694;9.476;2022-07-17T08:39:29;2.73;;;2.10;;
50012;SDS011;35901;48.694;9.476;2022-07-17T08:41:54;2.27;;;2.10;;
50012;SDS011;35901;48.694;9.476;2022-07-17T08:44:21;2.30;;;1.77;;
50012;SDS011;35901;48.694;9.476;2022-07-17T08:46:47;2.07;;;1.97;;
50012;SDS011;35901;48.694;9.476;2022-07-17T08:49:13;2.00;;;1.73;;
50012;SDS011;35901;48.694;9.476;2022-07-17T08:51:44;2.03;;;1.83;;
50012;SDS011;35901;48.694;9.476;2022-07-17T08:54:11;2.83;;;2.30;;
50012;SDS011;35901;48.694;9.476;2022-07-17T08:56:37;2.10;;;1.83;;
50012;SDS011;35901;48.694;9.476;2022-07-17T08:59:03;2.10;;;1.90;;
50012;SDS011;35901;48.694;9.476;2022-07-17T09:01:29;3.10;;;2.10;;
50012;SDS011;35901;48.694;9.476;2022-07-17T09:06:22;2.30;;;2.10;;
50012;SDS011;35901;48.694;9.476;2022-07-17T09:08:48;2.20;;;2.00;;
50012;SDS011;35901;48.694;9.476;2022-07-17T09:11:27;3.10;;;2.20;;
50012;SDS011;35901;48.694;9.476;2022-07-17T09:13:53;2.70;;;2.03;;
50012;SDS011;35901;48.694;9.476;2022-07-17T09:16:19;2.30;;;2.10;;
50012;SDS011;35901;48.694;9.476;2022-07-17T09:18:45;2.40;;;1.93;;
50012;SDS011;35901;48.694;9.476;2022-07-17T09:21:16;2.23;;;1.83;;
50012;SDS011;35901;48.694;9.476;2022-07-17T09:23:43;2.30;;;2.10;;
50012;SDS011;35901;48.694;9.476;2022-07-17T09:26:09;2.60;;;2.00;;
50012;SDS011;35901;48.694;9.476;2022-07-17T09:28:45;2.53;;;2.00;;
50012;SDS011;35901;48.694;9.476;2022-07-17T09:31:11;2.20;;;2.10;;
50012;SDS011;35901;48.694;9.476;2022-07-17T09:33:40;2.30;;;1.90;;
50012;SDS011;35901;48.694;9.476;2022-07-17T09:36:10;2.03;;;1.93;;
50012;SDS011;35901;48.694;9.476;2022-07-17T09:38:39;1.90;;;1.80;;
50012;SDS011;35901;48.694;9.476;2022-07-17T09:41:13;1.93;;;1.83;;
50012;SDS011;35901;48.694;9.476;2022-07-17T09:46:15;2.10;;;2.00;;
50012;SDS011;35901;48.694;9.476;2022-07-17T09:48:43;1.80;;;1.70;;
50012;SDS011;35901;48.694;9.476;2022-07-17T09:51:15;1.83;;;1.70;;
50012;SDS011;35901;48.694;9.476;2022-07-17T09:53:43;2.63;;;1.70;;
50012;SDS011;35901;48.694;9.476;2022-07-17T09:56:12;1.77;;;1.67;;
50012;SDS011;35901;48.694;9.476;2022-07-17T09:58:42;2.00;;;1.90;;
50012;SDS011;35901;48.694;9.476;2022-07-17T10:01:10;2.10;;;1.60;;
50012;SDS011;35901;48.694;9.476;2022-07-17T10:03:38;1.70;;;1.60;;
50012;SDS011;35901;48.694;9.476;2022-07-17T10:06:04;2.00;;;1.90;;
50012;SDS011;35901;48.694;9.476;2022-07-17T10:08:30;1.97;;;1.87;;
50012;SDS011;35901;48.694;9.476;2022-07-17T10:10:57;2.93;;;1.90;;
50012;SDS011;35901;48.694;9.476;2022-07-17T10:13:23;2.13;;;2.03;;
50012;SDS011;35901;48.694;9.476;2022-07-17T10:15:50;1.87;;;1.77;;
50012;SDS011;35901;48.694;9.476;2022-07-17T10:18:16;1.73;;;1.63;;
50012;SDS011;35901;48.694;9.476;2022-07-17T10:20:41;1.87;;;1.77;;
50012;SDS011;35901;48.694;9.476;2022-07-17T10:23:11;2.40;;;1.83;;
50012;SDS011;35901;48.694;9.476;2022-07-17T10:25:38;1.70;;;1.60;;
50012;SDS011;35901;48.694;9.476;2022-07-17T10:28:04;1.90;;;1.80;;
50012;SDS011;35901;48.694;9.476;2022-07-17T10:30:29;1.90;;;1.80;;
50012;SDS011;35901;48.694;9.476;2022-07-17T10:33:00;1.93;;;1.83;;
50012;SDS011;35901;48.694;9.476;2022-07-17T10:35:39;2.00;;;1.80;;
50012;SDS011;35901;48.694;9.476;2022-07-17T10:38:12;1.70;;;1.60;;
50012;SDS011;35901;48.694;9.476;2022-07-17T10:40:41;1.80;;;1.57;;
50012;SDS011;35901;48.694;9.476;2022-07-17T10:43:07;2.00;;;1.80;;
50012;SDS011;35901;48.694;9.476;2022-07-17T10:45:38;1.70;;;1.60;;
50012;SDS011;35901;48.694;9.476;2022-07-17T10:48:16;1.60;;;1.50;;
50012;SDS011;35901;48.694;9.476;2022-07-17T10:55:46;1.80;;;1.70;;
50012;SDS011;35901;48.694;9.476;2022-07-17T10:58:17;2.30;;;1.60;;
50012;SDS011;35901;48.694;9.476;2022-07-17T11:00:57;1.87;;;1.77;;
50012;SDS011;35901;48.694;9.476;2022-07-17T11:03:24;1.80;;;1.70;;
50012;SDS011;35901;48.694;9.476;2022-07-17T11:05:50;1.80;;;1.70;;
50012;SDS011;35901;48.694;9.476;2022-07-17T11:08:16;1.90;;;1.80;;
50012;SDS011;35901;48.694;9.476;2022-07-17T11:10:41;1.70;;;1.60;;
50012;SDS011;35901;48.694;9.476;2022-07-17T11:13:11;2.80;;;2.05;;
50012;SDS011;35901;48.694;9.476;2022-07-17T11:15:42;2.83;;;1.83;;
50012;SDS011;35901;48.694;9.476;2022-07-17T11:18:13;1.97;;;1.77;;
50012;SDS011;35901;48.694;9.476;2022-07-17T11:20:47;1.90;;;1.80;;
50012;SDS011;35901;48.694;9.476;2022-07-17T11:23:20;1.80;;;1.70;;
50012;SDS011;35901;48.694;9.476;2022-07-17T11:28:29;1.87;;;1.77;;
50012;SDS011;35901;48.694;9.476;2022-07-17T11:31:00;2.00;;;1.90;;
50012;SDS011;35901;48.694;9.476;2022-07-17T11:33:28;1.60;;;1.50;;
50012;SDS011;35901;48.694;9.476;2022-07-17T11:35:54;1.53;;;1.43;;
50012;SDS011;35901;48.694;9.476;2022-07-17T11:38:29;1.88;;;1.65;;
50012;SDS011;35901;48.694;9.476;2022-07-17T11:40:55;1.60;;;1.50;;
50012;SDS011;35901;48.694;9.476;2022-07-17T11:43:21;1.70;;;1.60;;
50012;SDS011;35901;48.694;9.476;2022-07-17T11:45:47;1.63;;;1.53;;
50012;SDS011;35901;48.694;9.476;2022-07-17T11:48:13;1.92;;;1.60;;
50012;SDS011;35901;48.694;9.476;2022-07-17T11:50:39;1.70;;;1.60;;
50012;SDS011;35901;48.694;9.476;2022-07-17T11:53:05;1.90;;;1.65;;
50012;SDS011;35901;48.694;9.476;2022-07-17T11:55:35;1.95;;;1.80;;
50012;SDS011;35901;48.694;9.476;2022-07-17T11:58:02;1.63;;;1.52;;
50012;SDS011;35901;48.694;9.476;2022-07-17T12:00:27;1.85;;;1.75;;
50012;SDS011;35901;48.694;9.476;2022-07-17T12:03:04;1.85;;;1.75;;
50012;SDS011;35901;48.694;9.476;2022-07-17T12:05:32;3.53;;;1.70;;
50012;SDS011;35901;48.694;9.476;2022-07-17T12:07:59;2.00;;;1.90;;
50012;SDS011;35901;48.694;9.476;2022-07-17T12:10:26;2.03;;;1.83;;
50012;SDS011;35901;48.694;9.476;2022-07-17T12:15:43;1.60;;;1.50;;
50012;SDS011;35901;48.694;9.476;2022-07-17T12:18:20;1.75;;;1.65;;
50012;SDS011;35901;48.694;9.476;2022-07-17T12:21:03;1.80;;;1.70;;
50012;SDS011;35901;48.694;9.476;2022-07-17T12:23:36;1.65;;;1.55;;
50012;SDS011;35901;48.694;9.476;2022-07-17T12:26:12;1.70;;;1.60;;
50012;SDS011;35901;48.694;9.476;2022-07-17T12:28:41;1.97;;;1.87;;
50012;SDS011;35901;48.694;9.476;2022-07-17T12:31:07;1.80;;;1.70;;
50012;SDS011;35901;48.694;9.476;2022-07-17T12:33:33;1.80;;;1.70;;
50012;SDS011;35901;48.694;9.476;2022-07-17T12:35:58;1.80;;;1.70;;
50012;SDS011;35901;48.694;9.476;2022-07-17T12:38:24;2.00;;;1.90;;
50012;SDS011;35901;48.694;9.476;2022-07-17T12:40:50;1.73;;;1.63;;
50012;SDS011;35901;48.694;9.476;2022-07-17T12:43:21;1.80;;;1.70;;
50012;SDS011;35901;48.694;9.476;2022-07-17T12:45:48;1.60;;;1.50;;
50012;SDS011;35901;48.694;9.476;2022-07-17T12:48:14;1.75;;;1.60;;
50012;SDS011;35901;48.694;9.476;2022-07-17T12:50:39;1.90;;;1.80;;
50012;SDS011;35901;48.694;9.476;2022-07-17T12:53:05;3.33;;;1.70;;
50012;SDS011;35901;48.694;9.476;2022-07-17T12:55:31;2.38;;;1.70;;
50012;SDS011;35901;48.694;9.476;2022-07-17T12:57:58;1.73;;;1.63;;
50012;SDS011;35901;48.694;9.476;2022-07-17T13:00:23;1.70;;;1.60;;
50012;SDS011;35901;48.694;9.476;2022-07-17T13:02:49;1.85;;;1.60;;
50012;SDS011;35901;48.694;9.476;2022-07-17T13:05:15;1.70;;;1.60;;
50012;SDS011;35901;48.694;9.476;2022-07-17T13:07:41;1.85;;;1.58;;
50012;SDS011;35901;48.694;9.476;2022-07-17T13:10:07;1.75;;;1.65;;
50012;SDS011;35901;48.694;9.476;2022-07-17T13:12:34;1.73;;;1.52;;
50012;SDS011;35901;48.694;9.476;2022-07-17T13:15:01;1.95;;;1.80;;
50012;SDS011;35901;48.694;9.476;2022-07-17T13:17:27;2.75;;;1.70;;
50012;SDS011;35901;48.694;9.476;2022-07-17T13:19:54;1.70;;;1.60;;
50012;SDS011;35901;48.694;9.476;2022-07-17T13:22:23;2.25;;;1.50;;
50012;SDS011;35901;48.694;9.476;2022-07-17T13:24:49;1.98;;;1.70;;
50012;SDS011;35901;48.694;9.476;2022-07-17T13:27:14;1.50;;;1.50;;
50012;SDS011;35901;48.694;9.476;2022-07-17T13:29:40;1.50;;;1.50;;
50012;SDS011;35901;48.694;9.476;2022-07-17T13:32:05;1.70;;;1.60;;
50012;SDS011;35901;48.694;9.476;2022-07-17T13:34:31;1.80;;;1.70;;
50012;SDS011;35901;48.694;9.476;2022-07-17T13:36:58;1.70;;;1.60;;
50012;SDS011;35901;48.694;9.476;2022-07-17T13:39:24;2.20;;;1.52;;
50012;SDS011;35901;48.694;9.476;2022-07-17T13:41:50;1.60;;;1.50;;
50012;SDS011;35901;48.694;9.476;2022-07-17T13:44:16;1.50;;;1.50;;
50012;SDS011;35901;48.694;9.476;2022-07-17T13:46:42;1.85;;;1.75;;
50012;SDS011;35901;48.694;9.476;2022-07-17T13:49:07;2.42;;;1.60;;
50012;SDS011;35901;48.694;9.476;2022-07-17T13:51:34;1.73;;;1.60;;
50012;SDS011;35901;48.694;9.476;2022-07-17T13:54:00;1.52;;;1.42;;
50012;SDS011;35901;48.694;9.476;2022-07-17T13:56:27;1.63;;;1.52;;
50012;SDS011;35901;48.694;9.476;2022-07-17T13:58:54;1.90;;;1.60;;
50012;SDS011;35901;48.694;9.476;2022-07-17T14:01:19;1.55;;;1.45;;
50012;SDS011;35901;48.694;9.476;2022-07-17T14:03:46;1.30;;;1.30;;
50012;SDS011;35901;48.694;9.476;2022-07-17T14:06:11;3.72;;;1.70;;
50012;SDS011;35901;48.694;9.476;2022-07-17T14:08:37;1.50;;;1.40;;
50012;SDS011;35901;48.694;9.476;2022-07-17T14:11:03;1.50;;;1.40;;
50012;SDS011;35901;48.694;9.476;2022-07-17T14:13:31;1.65;;;1.40;;
50012;SDS011;35901;48.694;9.476;2022-07-17T14:15:58;2.38;;;1.60;;
50012;SDS011;35901;48.694;9.476;2022-07-17T14:18:24;1.50;;;1.42;;
50012;SDS011;35901;48.694;9.476;2022-07-17T14:20:50;1.40;;;1.40;;
50012;SDS011;35901;48.694;9.476;2022-07-17T14:23:16;1.73;;;1.63;;
50012;SDS011;35901;48.694;9.476;2022-07-17T14:25:42;1.60;;;1.50;;
50012;SDS011;35901;48.694;9.476;2022-07-17T14:28:08;1.60;;;1.50;;
50012;SDS011;35901;48.694;9.476;2022-07-17T14:30:35;1.75;;;1.60;;
50012;SDS011;35901;48.694;9.476;2022-07-17T14:33:01;1.80;;;1.67;;
50012;SDS011;35901;48.694;9.476;2022-07-17T14:35:26;1.65;;;1.52;;
50012;SDS011;35901;48.694;9.476;2022-07-17T14:37:53;2.05;;;1.70;;
50012;SDS011;35901;48.694;9.476;2022-07-17T14:40:20;1.85;;;1.75;;
50012;SDS011;35901;48.694;9.476;2022-07-17T14:42:46;2.38;;;1.63;;
50012;SDS011;35901;48.694;9.476;2022-07-17T14:45:12;1.70;;;1.60;;
50012;SDS011;35901;48.694;9.476;2022-07-17T14:47:38;1.70;;;1.60;;
50012;SDS011;35901;48.694;9.476;2022-07-17T14:50:08;1.73;;;1.63;;
50012;SDS011;35901;48.694;9.476;2022-07-17T14:52:34;1.80;;;1.70;;
50012;SDS011;35901;48.694;9.476;2022-07-17T14:55:01;1.58;;;1.48;;
50012;SDS011;35901;48.694;9.476;2022-07-17T14:57:28;1.70;;;1.60;;
50012;SDS011;35901;48.694;9.476;2022-07-17T14:59:54;2.05;;;1.70;;
50012;SDS011;35901;48.694;9.476;2022-07-17T15:02:21;1.60;;;1.40;;
50012;SDS011;35901;48.694;9.476;2022-07-17T15:04:46;1.70;;;1.60;;
50012;SDS011;35901;48.694;9.476;2022-07-17T15:07:12;1.80;;;1.70;;
50012;SDS011;35901;48.694;9.476;2022-07-17T15:09:38;1.80;;;1.70;;
50012;SDS011;35901;48.694;9.476;2022-07-17T15:12:04;1.80;;;1.70;;
50012;SDS011;35901;48.694;9.476;2022-07-17T15:14:29;1.88;;;1.70;;